Time;durP1;ratioP1;P1;durP2;ratioP2;P2;SDS_P1;SDS_P2;PMS_P1;PMS_P2;Temp;Humidity;BMP_temperature;BMP_pressure;BME280_temperature;BME280_humidity;BME280_pressure;Samples;Min_cycle;Max_cycle;Signal;HPM_P1;HPM_P2
2021/06/03 00:00:17;;;;;;;9.10;3.20;;;;;;;23.26;42.39;101441.88;5054463;28;20036;-48
2021/06/03 00:02:47;;;;;;;5.00;2.75;;;;;;;23.21;42.50;101441.25;5053727;28;20553;-50
2021/06/03 00:05:17;;;;;;;5.10;3.00;;;;;;;23.18;42.75;101443.53;5054233;28;20045;-49
2021/06/03 00:07:45;;;;;;;8.00;3.65;;;;;;;23.12;42.84;101450.47;5054356;28;20045;-53
2021/06/03 00:10:14;;;;;;;6.53;2.90;;;;;;;23.12;43.10;101458.00;5054047;28;20415;-49
2021/06/03 00:12:41;;;;;;;4.43;2.63;;;;;;;23.07;43.28;101456.25;5054585;28;20038;-51
2021/06/03 00:15:12;;;;;;;10.50;3.20;;;;;;;23.04;43.42;101464.41;5054403;28;20045;-49
2021/06/03 00:17:40;;;;;;;8.75;3.50;;;;;;;22.99;43.74;101459.06;5049191;28;20037;-52
2021/06/03 00:20:13;;;;;;;5.97;3.28;;;;;;;22.90;44.12;101459.09;5047766;28;20044;-49
2021/06/03 00:22:42;;;;;;;6.10;3.35;;;;;;;22.84;44.36;101466.81;5040588;28;20099;-49
2021/06/03 00:25:10;;;;;;;5.47;3.25;;;;;;;22.88;44.26;101467.75;5053904;28;20045;-49
2021/06/03 00:27:38;;;;;;;8.07;3.72;;;;;;;22.87;44.50;101468.91;5053856;28;20041;-49
2021/06/03 00:30:07;;;;;;;5.90;3.38;;;;;;;22.77;44.99;101472.06;5049467;28;20041;-48
2021/06/03 00:32:35;;;;;;;6.13;3.53;;;;;;;22.77;44.95;101466.50;5051788;28;20045;-50
2021/06/03 00:35:04;;;;;;;7.10;3.10;;;;;;;22.75;44.77;101474.38;5053736;28;20072;-47
2021/06/03 00:37:32;;;;;;;6.05;3.30;;;;;;;22.72;44.76;101475.03;5053538;28;20045;-49
2021/06/03 00:40:03;;;;;;;7.88;3.30;;;;;;;22.79;44.63;101475.34;5053722;28;20128;-50
2021/06/03 00:42:31;;;;;;;5.95;3.30;;;;;;;22.84;44.78;101477.09;5053589;28;20764;-52
2021/06/03 00:44:59;;;;;;;4.60;2.55;;;;;;;22.89;44.42;101468.56;5053716;28;20037;-49
2021/06/03 00:47:26;;;;;;;4.22;2.60;;;;;;;22.88;44.53;101478.06;5053198;28;20155;-50
2021/06/03 00:49:55;;;;;;;5.53;3.33;;;;;;;22.89;44.55;101474.13;5053828;28;20040;-51
2021/06/03 00:52:23;;;;;;;8.35;2.85;;;;;;;22.86;44.45;101472.84;5053733;28;20052;-51
2021/06/03 00:54:51;;;;;;;7.43;2.83;;;;;;;22.84;44.68;101474.31;5053659;28;20055;-50
2021/06/03 00:57:19;;;;;;;5.25;2.67;;;;;;;22.82;44.93;101473.84;5068960;28;20110;-51
2021/06/03 00:59:49;;;;;;;4.93;2.72;;;;;;;22.71;45.05;101470.66;5048376;28;20044;-49
2021/06/03 01:02:17;;;;;;;4.70;2.45;;;;;;;22.61;45.32;101479.34;5043606;28;20052;-51
2021/06/03 01:04:44;;;;;;;4.45;2.45;;;;;;;22.61;45.06;101474.63;5051391;28;20053;-50
2021/06/03 01:07:12;;;;;;;3.45;2.28;;;;;;;22.68;44.76;101471.28;5053226;28;20041;-52
2021/06/03 01:10:12;;;;;;;4.70;2.25;;;;;;;22.73;45.13;101471.13;5068400;28;20045;-50
2021/06/03 01:12:51;;;;;;;3.80;2.25;;;;;;;22.80;45.49;101471.41;5068562;28;20041;-51
2021/06/03 01:15:19;;;;;;;3.13;2.20;;;;;;;22.76;45.80;101470.47;5067295;28;20061;-52
2021/06/03 01:17:47;;;;;;;3.92;2.25;;;;;;;22.71;46.12;101473.44;5052082;28;20069;-51
2021/06/03 01:20:19;;;;;;;5.43;2.40;;;;;;;22.71;45.05;101476.19;5048924;28;20048;-51
2021/06/03 01:22:55;;;;;;;4.32;2.72;;;;;;;22.80;45.17;101479.75;5048304;28;20160;-55
2021/06/03 01:25:24;;;;;;;4.40;2.88;;;;;;;22.84;46.14;101489.03;5062678;28;20503;-51
2021/06/03 01:27:54;;;;;;;3.65;2.70;;;;;;;22.85;45.43;101485.13;5053137;28;20053;-50
2021/06/03 01:30:34;;;;;;;2.97;2.10;;;;;;;22.90;44.84;101478.56;5067066;28;20080;-52
2021/06/03 01:33:10;;;;;;;2.70;2.40;;;;;;;22.84;46.60;101483.47;5048236;28;20403;-52
2021/06/03 01:35:44;;;;;;;2.65;2.30;;;;;;;22.75;47.11;101485.47;5046723;28;20526;-49
2021/06/03 01:38:16;;;;;;;8.73;2.92;;;;;;;22.70;47.38;101485.66;5052536;28;20087;-50
2021/06/03 01:40:46;;;;;;;5.10;2.67;;;;;;;22.68;47.47;101490.75;5049762;28;20091;-47
2021/06/03 01:43:17;;;;;;;4.00;2.45;;;;;;;22.64;47.79;101498.13;5048380;28;20033;-50
2021/06/03 01:45:46;;;;;;;7.07;2.70;;;;;;;22.61;47.68;101499.63;5052352;28;20048;-49
2021/06/03 01:48:16;;;;;;;3.25;2.17;;;;;;;22.61;47.01;101498.78;5051424;28;20049;-49
2021/06/03 01:50:46;;;;;;;4.38;2.60;;;;;;;22.72;46.07;101502.81;5051039;28;20052;-51
2021/06/03 01:53:15;;;;;;;3.45;2.50;;;;;;;22.80;46.45;101504.75;5052131;28;20045;-50
2021/06/03 01:55:44;;;;;;;2.92;2.25;;;;;;;22.84;46.60;101508.47;5051475;28;20052;-51
2021/06/03 01:58:13;;;;;;;3.30;2.35;;;;;;;22.80;46.09;101515.88;5047202;28;20412;-49
2021/06/03 02:00:45;;;;;;;3.92;2.55;;;;;;;22.76;47.20;101520.47;5051158;28;20254;-49
2021/06/03 02:03:14;;;;;;;3.25;2.20;;;;;;;22.69;47.57;101511.84;5050803;28;20079;-50
2021/06/03 02:05:41;;;;;;;4.85;2.47;;;;;;;22.64;47.79;101517.56;5052260;28;20052;-51
2021/06/03 02:08:09;;;;;;;4.75;2.80;;;;;;;22.58;48.13;101514.16;5052108;28;20099;-50
2021/06/03 02:10:48;;;;;;;5.05;2.28;;;;;;;22.57;47.98;101506.16;5047345;28;20087;-48
2021/06/03 02:13:19;;;;;;;3.40;2.47;;;;;;;22.63;47.57;101510.38;5043206;28;20064;-49
2021/06/03 02:16:11;;;;;;;3.35;2.55;;;;;;;22.60;46.66;101502.72;5051612;28;20442;-50
2021/06/03 02:18:50;;;;;;;3.25;2.25;;;;;;;22.51;48.11;101505.53;5051414;28;20033;-52
2021/06/03 02:21:26;;;;;;;2.77;2.40;;;;;;;22.47;48.38;101502.59;5039233;28;20052;-50
2021/06/03 02:23:58;;;;;;;5.88;2.63;;;;;;;22.46;48.17;101506.50;5052440;28;20287;-51
2021/06/03 02:26:27;;;;;;;4.75;2.60;;;;;;;22.46;48.63;101506.50;5049907;28;20072;-51
2021/06/03 02:29:03;;;;;;;3.67;2.55;;;;;;;22.49;48.17;101510.63;5048718;28;20502;-52
2021/06/03 02:31:32;;;;;;;3.53;2.38;;;;;;;22.51;47.51;101509.13;5052820;28;20037;-54
2021/06/03 02:34:00;;;;;;;4.40;2.63;;;;;;;22.54;48.33;101508.47;5047783;28;20049;-51
2021/06/03 02:36:29;;;;;;;4.57;2.58;;;;;;;22.54;48.37;101513.22;5050755;28;20053;-49
2021/06/03 02:38:58;;;;;;;3.60;2.28;;;;;;;22.50;48.19;101510.25;5047239;28;20045;-51
2021/06/03 02:41:28;;;;;;;3.22;2.42;;;;;;;22.49;48.24;101519.75;5049195;28;20056;-49
2021/06/03 02:43:58;;;;;;;4.82;2.58;;;;;;;22.47;48.33;101530.38;5050653;28;20415;-47
2021/06/03 02:46:26;;;;;;;4.28;2.70;;;;;;;22.47;48.96;101529.56;5051506;28;20106;-47
2021/06/03 02:48:59;;;;;;;5.00;2.60;;;;;;;22.44;48.93;101527.44;5047544;28;20080;-51
2021/06/03 02:51:28;;;;;;;5.25;2.45;;;;;;;22.39;48.96;101522.88;5047611;28;20041;-49
2021/06/03 02:53:56;;;;;;;4.05;2.47;;;;;;;22.36;49.40;101534.66;5047640;28;20500;-48
2021/06/03 02:56:30;;;;;;;4.53;2.50;;;;;;;22.35;49.31;101527.47;5045854;28;20414;-49
2021/06/03 02:58:58;;;;;;;4.00;2.50;;;;;;;22.34;49.31;101525.84;5050662;28;20044;-49
2021/06/03 03:01:26;;;;;;;8.52;2.60;;;;;;;22.32;49.63;101525.34;5047237;28;20381;-49
2021/06/03 03:03:54;;;;;;;7.75;2.67;;;;;;;22.28;49.47;101524.41;5051694;28;20545;-50
2021/06/03 03:06:22;;;;;;;3.53;2.50;;;;;;;22.26;49.62;101526.69;5051652;28;20041;-49
2021/06/03 03:08:50;;;;;;;2.97;2.53;;;;;;;22.29;49.73;101534.34;5051518;28;20049;-52
2021/06/03 03:11:21;;;;;;;6.10;2.58;;;;;;;22.28;49.74;101541.88;5049811;28;20049;-49
2021/06/03 03:13:50;;;;;;;5.38;2.45;;;;;;;22.28;49.48;101535.50;5047129;28;20061;-50
2021/06/03 03:16:18;;;;;;;4.10;2.67;;;;;;;22.25;49.76;101536.97;5041335;28;20470;-49
2021/06/03 03:18:47;;;;;;;3.53;2.65;;;;;;;22.26;49.92;101538.59;5051231;28;20045;-49
2021/06/03 03:21:15;;;;;;;5.80;2.90;;;;;;;22.24;50.06;101540.88;5047066;28;20447;-48
2021/06/03 03:23:46;;;;;;;2.58;2.38;;;;;;;22.19;49.91;101546.56;5047539;28;20761;-50
2021/06/03 03:26:15;;;;;;;4.65;2.78;;;;;;;22.12;50.72;101552.63;5046759;28;20041;-49
2021/06/03 03:28:42;;;;;;;7.30;2.65;;;;;;;22.13;50.44;101548.72;5046359;28;20053;-49
2021/06/03 03:31:11;;;;;;;5.53;2.65;;;;;;;22.15;50.33;101550.34;5046951;28;20128;-50
2021/06/03 03:33:39;;;;;;;6.32;2.85;;;;;;;22.15;50.44;101550.34;5043764;28;20037;-51
2021/06/03 03:36:07;;;;;;;4.43;2.58;;;;;;;22.12;50.78;101555.41;5051170;28;20055;-52
2021/06/03 03:38:41;;;;;;;4.05;3.00;;;;;;;22.08;51.49;101557.22;5053662;28;20132;-50
2021/06/03 03:41:09;;;;;;;4.55;2.70;;;;;;;22.02;50.86;101555.75;5053009;28;20052;-49
2021/06/03 03:43:37;;;;;;;2.95;2.60;;;;;;;21.99;51.60;101561.97;5050497;28;20057;-50
2021/06/03 03:46:05;;;;;;;5.43;2.85;;;;;;;22.02;51.40;101557.72;5052535;28;20105;-49
2021/06/03 03:48:35;;;;;;;5.22;2.65;;;;;;;22.03;51.72;101556.56;5054945;28;20471;-49
2021/06/03 03:51:03;;;;;;;6.40;2.67;;;;;;;22.00;51.75;101560.81;5054934;28;20053;-53
2021/06/03 03:53:38;;;;;;;7.72;3.50;;;;;;;21.95;52.61;101560.16;5049831;28;20415;-50
2021/06/03 03:56:11;;;;;;;4.63;2.97;;;;;;;21.93;52.44;101563.25;5046437;28;20506;-50
2021/06/03 03:58:41;;;;;;;5.45;3.55;;;;;;;21.89;53.04;101559.53;5054363;28;20045;-49
2021/06/03 04:01:09;;;;;;;9.38;3.50;;;;;;;21.88;53.37;101564.25;5054542;28;20044;-49
2021/06/03 04:03:39;;;;;;;4.15;3.05;;;;;;;21.89;52.99;101573.41;5053201;28;20446;-48
2021/06/03 04:06:09;;;;;;;4.13;2.80;;;;;;;21.86;53.02;101560.16;5054611;28;20037;-48
2021/06/03 04:08:37;;;;;;;7.15;3.40;;;;;;;21.86;52.98;101566.53;5053753;28;20063;-50
2021/06/03 04:11:06;;;;;;;5.28;2.63;;;;;;;21.89;51.96;101559.53;5054309;28;20061;-51
2021/06/03 04:13:39;;;;;;;6.88;3.17;;;;;;;21.91;53.04;101571.09;5052493;28;20047;-49
2021/06/03 04:16:08;;;;;;;4.57;2.75;;;;;;;21.90;52.73;101573.06;5054492;28;20073;-49
2021/06/03 04:18:38;;;;;;;5.05;2.78;;;;;;;21.89;53.05;101570.63;5053167;28;20164;-50
2021/06/03 04:21:07;;;;;;;4.53;3.35;;;;;;;21.90;53.24;101573.06;5054176;28;20059;-46
2021/06/03 04:23:38;;;;;;;4.85;3.20;;;;;;;21.92;53.25;101575.50;5053507;28;20067;-49
2021/06/03 04:26:06;;;;;;;4.53;2.65;;;;;;;21.92;52.36;101578.28;5053974;28;20049;-48
2021/06/03 04:28:34;;;;;;;6.63;2.90;;;;;;;21.97;52.34;101582.84;5054135;28;20045;-49
2021/06/03 04:31:03;;;;;;;6.25;3.20;;;;;;;21.96;53.25;101582.03;5036092;28;20115;-46
2021/06/03 04:33:31;;;;;;;4.88;2.83;;;;;;;21.95;52.76;101587.91;5046832;28;20033;-48
2021/06/03 04:35:59;;;;;;;6.68;3.00;;;;;;;21.96;52.74;101595.09;5053671;28;20045;-50
2021/06/03 04:38:26;;;;;;;7.47;3.13;;;;;;;21.90;53.93;101594.44;5053301;28;20057;-50
2021/06/03 04:40:54;;;;;;;5.90;2.95;;;;;;;21.85;54.44;101592.63;5053318;28;20087;-50
2021/06/03 04:43:22;;;;;;;6.97;2.90;;;;;;;21.82;54.83;101603.59;5054107;28;20056;-51
2021/06/03 04:45:50;;;;;;;4.68;3.08;;;;;;;21.76;55.05;101602.91;5054273;28;20049;-50
2021/06/03 04:48:17;;;;;;;5.18;3.35;;;;;;;21.78;54.74;101597.84;5054113;28;20041;-52
2021/06/03 04:50:46;;;;;;;6.93;3.38;;;;;;;21.79;54.85;101612.53;5053352;28;20045;-54
2021/06/03 04:53:17;;;;;;;5.35;3.30;;;;;;;21.79;54.65;101607.00;5053114;28;20110;-52
2021/06/03 04:55:46;;;;;;;4.70;2.95;;;;;;;21.81;54.12;101607.50;5053745;28;20083;-53
2021/06/03 04:58:14;;;;;;;6.30;3.38;;;;;;;21.82;54.33;101606.38;5053567;28;20068;-50
2021/06/03 05:00:42;;;;;;;6.10;3.65;;;;;;;21.82;54.92;101611.91;5049069;28;20046;-50
2021/06/03 05:03:11;;;;;;;5.38;3.22;;;;;;;21.80;54.68;101609.44;5047725;28;20107;-49
2021/06/03 05:05:42;;;;;;;7.90;3.40;;;;;;;21.83;53.64;101619.09;5052959;28;20075;-51
2021/06/03 05:08:10;;;;;;;5.85;3.30;;;;;;;21.84;53.93;101623.47;5052655;28;20122;-50
2021/06/03 05:10:38;;;;;;;5.30;3.20;;;;;;;21.83;53.73;101614.34;5039211;28;20103;-52
2021/06/03 05:13:06;;;;;;;5.82;3.42;;;;;;;21.80;54.64;101622.50;5053129;28;20305;-52
2021/06/03 05:15:34;;;;;;;6.70;3.47;;;;;;;21.82;54.12;101628.56;5052927;28;20091;-52
2021/06/03 05:18:06;;;;;;;6.65;3.60;;;;;;;21.85;54.39;101625.13;5053023;28;20045;-53
2021/06/03 05:20:36;;;;;;;5.88;3.78;;;;;;;21.84;54.89;101637.34;5051737;28;20051;-53
2021/06/03 05:23:04;;;;;;;4.63;3.22;;;;;;;21.83;54.82;101632.94;5048240;28;20499;-52
2021/06/03 05:25:33;;;;;;;9.02;4.05;;;;;;;21.82;54.92;101642.44;5049839;28;20451;-51
2021/06/03 05:28:01;;;;;;;6.78;3.65;;;;;;;21.84;54.52;101634.56;5052845;28;20037;-52
2021/06/03 05:30:30;;;;;;;6.60;3.38;;;;;;;21.89;53.30;101642.75;5052545;28;20111;-54
2021/06/03 05:32:58;;;;;;;6.57;3.63;;;;;;;21.98;53.24;101643.56;5052717;28;20033;-53
2021/06/03 05:35:26;;;;;;;7.97;3.95;;;;;;;21.99;53.92;101652.72;5051792;28;20088;-54
2021/06/03 05:37:54;;;;;;;6.38;3.75;;;;;;;22.02;53.80;101654.84;5052849;28;20041;-52
2021/06/03 05:40:24;;;;;;;12.93;4.20;;;;;;;21.99;53.94;101652.72;5052479;28;20069;-48
2021/06/03 05:42:52;;;;;;;9.48;3.63;;;;;;;21.97;53.84;101647.50;5052504;28;20072;-50
2021/06/03 05:45:21;;;;;;;6.82;3.78;;;;;;;22.01;54.11;101656.81;5052257;28;20044;-51
2021/06/03 05:47:49;;;;;;;7.15;4.07;;;;;;;22.05;53.82;101655.00;5052307;28;20076;-50
2021/06/03 05:50:19;;;;;;;6.55;3.70;;;;;;;22.05;54.12;101655.00;5052012;28;20793;-48
2021/06/03 05:52:47;;;;;;;6.22;3.60;;;;;;;22.06;53.88;101664.97;5052140;28;20053;-50
2021/06/03 05:55:16;;;;;;;8.40;4.20;;;;;;;22.05;54.31;101663.31;5052186;28;20041;-51
2021/06/03 05:57:44;;;;;;;9.90;5.20;;;;;;;22.05;54.00;101668.88;5052590;28;20136;-47
2021/06/03 06:00:15;;;;;;;8.82;4.22;;;;;;;22.05;53.70;101670.84;5050794;28;20068;-47
2021/06/03 06:02:51;;;;;;;6.43;3.20;;;;;;;22.08;51.73;101672.94;5052154;28;20053;-49
2021/06/03 06:08:06;;;;;;;7.43;4.53;;;;;;;22.12;54.93;101674.75;5052161;28;20048;-50
2021/06/03 06:10:35;;;;;;;8.45;4.53;;;;;;;22.09;54.74;101680.16;5051780;28;20049;-49
2021/06/03 06:13:03;;;;;;;9.27;4.45;;;;;;;22.09;54.49;101678.19;5051975;28;20040;-47
2021/06/03 06:15:32;;;;;;;9.00;4.22;;;;;;;22.11;54.33;101684.25;5051796;28;20399;-48
2021/06/03 06:18:01;;;;;;;8.75;3.90;;;;;;;22.19;54.74;101681.78;5052273;28;20041;-48
2021/06/03 06:20:28;;;;;;;9.18;4.35;;;;;;;22.17;54.77;101686.84;5051246;28;20076;-51
2021/06/03 06:22:58;;;;;;;7.03;3.83;;;;;;;22.13;55.19;101695.84;5052017;28;20119;-49
2021/06/03 06:25:26;;;;;;;5.70;3.50;;;;;;;22.20;53.32;101697.28;5050714;28;20037;-49
2021/06/03 06:27:56;;;;;;;6.80;4.43;;;;;;;22.33;54.68;101690.81;5051615;28;20083;-47
2021/06/03 06:30:26;;;;;;;10.13;5.07;;;;;;;22.21;55.36;101699.78;5051439;28;20048;-50
2021/06/03 06:32:56;;;;;;;11.98;5.10;;;;;;;22.16;55.54;101701.88;5051795;28;20045;-49
2021/06/03 06:35:24;;;;;;;8.23;4.57;;;;;;;22.15;56.22;101703.81;5051339;28;20045;-50
2021/06/03 06:37:51;;;;;;;8.57;4.15;;;;;;;22.12;56.43;101696.16;5043698;28;20044;-51
2021/06/03 06:40:21;;;;;;;12.70;5.88;;;;;;;22.15;56.66;101698.25;5051413;28;20045;-51
2021/06/03 06:42:55;;;;;;;9.68;5.60;;;;;;;22.13;56.67;101700.56;5051584;28;20450;-54
2021/06/03 06:45:24;;;;;;;13.55;5.45;;;;;;;22.18;55.77;101699.59;5051667;28;20053;-52
2021/06/03 06:47:53;;;;;;;10.60;5.13;;;;;;;22.22;56.20;101706.16;5051329;28;20111;-51
2021/06/03 06:50:22;;;;;;;181.20;21.58;;;;;;;22.11;57.25;101703.66;5051618;28;20484;-51
2021/06/03 06:52:50;;;;;;;17.23;7.05;;;;;;;22.13;56.71;101703.34;5051519;28;20041;-56
2021/06/03 06:55:18;;;;;;;13.05;4.82;;;;;;;22.16;54.41;101710.22;5051420;28;20458;-49
2021/06/03 06:57:45;;;;;;;9.95;6.32;;;;;;;22.15;57.09;101701.03;5051873;28;20091;-51
2021/06/03 07:00:14;;;;;;;23.98;7.18;;;;;;;22.20;53.75;101709.28;5051747;28;20033;-50
2021/06/03 07:02:41;;;;;;;19.63;6.97;;;;;;;22.30;56.17;101708.94;5050995;28;20057;-48
2021/06/03 07:05:09;;;;;;;16.20;6.40;;;;;;;22.26;56.39;101709.91;5051586;28;20071;-51
2021/06/03 07:07:37;;;;;;;17.95;6.55;;;;;;;22.23;56.64;101707.78;5051335;28;20495;-49
2021/06/03 07:10:07;;;;;;;12.05;5.82;;;;;;;22.22;55.39;101714.47;5051320;28;20464;-50
2021/06/03 07:12:35;;;;;;;13.80;6.97;;;;;;;22.30;57.48;101713.69;5052800;28;20071;-50
2021/06/03 07:15:08;;;;;;;17.75;6.60;;;;;;;22.26;57.37;101718.25;5055283;28;20048;-49
2021/06/03 07:17:36;;;;;;;15.43;5.63;;;;;;;22.27;55.03;101717.94;5055001;28;20071;-51
2021/06/03 07:20:07;;;;;;;13.40;5.65;;;;;;;22.31;56.50;101720.84;5055660;28;20041;-50
2021/06/03 07:22:34;;;;;;;11.77;6.95;;;;;;;22.33;58.25;101715.78;5054659;28;20049;-48
2021/06/03 07:25:04;;;;;;;14.07;6.28;;;;;;;22.43;56.21;101721.00;5055461;28;20037;-49
2021/06/03 07:27:32;;;;;;;17.95;6.60;;;;;;;22.43;57.24;101712.69;5064088;28;20131;-49
2021/06/03 07:30:01;;;;;;;10.50;6.68;;;;;;;22.40;58.59;101710.56;5055077;28;20072;-47
2021/06/03 07:32:29;;;;;;;11.10;7.10;;;;;;;22.41;58.15;101714.97;5054514;28;20033;-49
2021/06/03 07:34:57;;;;;;;10.90;6.18;;;;;;;22.41;58.50;101705.81;5055139;28;20037;-51
2021/06/03 07:37:25;;;;;;;13.45;5.95;;;;;;;22.42;58.42;101705.50;5054942;28;20087;-48
2021/06/03 07:39:52;;;;;;;14.27;5.78;;;;;;;22.44;58.23;101710.72;5054636;28;20041;-52
2021/06/03 07:42:20;;;;;;;13.73;7.18;;;;;;;22.49;58.26;101710.56;5054760;28;20069;-50
2021/06/03 07:44:48;;;;;;;14.43;5.85;;;;;;;22.52;57.04;101713.50;5054811;28;20048;-50
2021/06/03 07:47:16;;;;;;;12.02;6.43;;;;;;;22.53;58.10;101711.53;5054521;28;20033;-50
2021/06/03 07:49:44;;;;;;;12.60;6.70;;;;;;;22.54;58.39;101714.00;5049345;28;20033;-51
2021/06/03 07:52:12;;;;;;;15.05;7.13;;;;;;;22.54;58.11;101713.19;5054560;28;20048;-56
2021/06/03 07:54:39;;;;;;;15.95;7.03;;;;;;;22.62;57.30;101717.09;5054718;28;20041;-49
2021/06/03 07:57:07;;;;;;;11.15;5.63;;;;;;;22.60;57.88;101728.53;5054724;28;20098;-54
2021/06/03 07:59:39;;;;;;;13.25;6.22;;;;;;;22.63;58.30;101721.50;5054492;28;20045;-48
2021/06/03 08:02:06;;;;;;;11.48;5.68;;;;;;;22.67;56.85;101734.41;5054251;28;20099;-50
2021/06/03 08:04:34;;;;;;;12.27;5.80;;;;;;;22.72;57.22;101727.88;5049691;28;20099;-50
2021/06/03 08:07:02;;;;;;;11.90;6.78;;;;;;;22.73;58.30;101726.75;5052912;28;20041;-49
2021/06/03 08:09:30;;;;;;;11.13;5.22;;;;;;;22.77;57.32;101730.47;5054132;28;20560;-50
2021/06/03 08:11:58;;;;;;;10.45;4.55;;;;;;;22.78;55.87;101729.34;5053806;28;20045;-49
2021/06/03 08:14:27;;;;;;;9.55;4.50;;;;;;;22.91;55.92;101733.88;5054381;28;20053;-52
2021/06/03 08:16:55;;;;;;;7.03;3.80;;;;;;;22.95;55.14;101740.41;5053800;28;20075;-52
2021/06/03 08:19:23;;;;;;;11.13;5.20;;;;;;;23.02;56.55;101736.34;5054407;28;20069;-50
2021/06/03 08:21:50;;;;;;;13.30;4.55;;;;;;;23.01;56.66;101743.06;5054535;28;20122;-52
2021/06/03 08:24:18;;;;;;;8.60;4.15;;;;;;;23.01;54.56;101741.09;5054687;28;20404;-49
2021/06/03 08:26:50;;;;;;;8.25;3.70;;;;;;;23.07;54.34;101744.53;5059309;28;20037;-52
2021/06/03 08:29:19;;;;;;;11.05;5.13;;;;;;;23.14;56.47;101753.19;5061649;28;20037;-50
2021/06/03 08:31:48;;;;;;;8.43;4.60;;;;;;;23.18;54.52;101748.56;5060302;28;20052;-51
2021/06/03 08:34:17;;;;;;;11.40;4.95;;;;;;;23.21;56.87;101747.09;5060902;28;20037;-53
2021/06/03 08:36:45;;;;;;;12.95;6.57;;;;;;;23.29;57.12;101749.84;5054520;28;20107;-52
2021/06/03 08:39:13;;;;;;;10.85;7.10;;;;;;;23.33;57.15;101753.59;5053880;28;20095;-53
2021/06/03 08:41:42;;;;;;;12.13;7.60;;;;;;;23.30;57.48;101745.91;5054036;28;20095;-49
2021/06/03 08:44:11;;;;;;;15.38;8.38;;;;;;;23.24;58.06;101750.03;5053383;28;20048;-49
2021/06/03 08:46:39;;;;;;;7.75;4.35;;;;;;;23.22;56.45;101749.53;5053618;28;20442;-49
2021/06/03 08:49:09;;;;;;;10.20;6.03;;;;;;;23.25;57.02;101748.88;5053819;28;20080;-52
2021/06/03 08:51:52;;;;;;;8.90;6.10;;;;;;;23.27;57.36;101754.91;5053710;28;20033;-50
2021/06/03 08:54:20;;;;;;;11.93;6.40;;;;;;;23.31;57.18;101755.09;5053454;28;20057;-49
2021/06/03 08:56:48;;;;;;;10.23;5.55;;;;;;;23.33;56.86;101747.22;5053299;28;20405;-49
2021/06/03 08:59:16;;;;;;;11.48;6.60;;;;;;;23.35;55.98;101750.47;5053259;28;20083;-49
2021/06/03 09:01:43;;;;;;;11.52;6.03;;;;;;;23.38;55.66;101750.63;5053290;28;20075;-47
2021/06/03 09:04:11;;;;;;;8.65;4.32;;;;;;;23.44;54.55;101747.66;5053667;28;20041;-51
2021/06/03 09:06:39;;;;;;;9.63;5.45;;;;;;;23.47;55.69;101752.56;5053197;28;20095;-49
2021/06/03 09:09:11;;;;;;;10.18;5.15;;;;;;;23.53;55.01;101751.25;5053125;28;20492;-50
2021/06/03 09:11:39;;;;;;;13.02;6.40;;;;;;;23.53;56.54;101752.06;5052810;28;20369;-49
2021/06/03 09:14:09;;;;;;;8.93;4.78;;;;;;;23.50;56.07;101749.09;5053119;28;20049;-48
2021/06/03 09:16:38;;;;;;;12.23;6.47;;;;;;;23.46;57.08;101760.09;5053197;28;20045;-50
2021/06/03 09:19:13;;;;;;;9.57;5.60;;;;;;;23.42;56.90;101752.75;5053348;28;20041;-49
2021/06/03 09:21:51;;;;;;;5.20;3.30;;;;;;;23.41;54.79;101746.38;5053131;28;20083;-49
2021/06/03 09:24:21;;;;;;;8.98;5.47;;;;;;;23.44;56.72;101750.47;5039496;28;20102;-48
2021/06/03 09:26:54;;;;;;;7.68;4.38;;;;;;;23.47;56.81;101756.16;5052860;28;20076;-49
2021/06/03 09:29:27;;;;;;;8.20;4.95;;;;;;;23.48;56.24;101748.66;5039327;28;20044;-51
2021/06/03 09:32:09;;;;;;;8.25;4.50;;;;;;;23.48;55.11;101757.00;5052771;28;20438;-50
2021/06/03 09:34:39;;;;;;;8.88;4.07;;;;;;;23.50;56.29;101760.22;5039003;28;20106;-49
2021/06/03 09:37:19;;;;;;;6.82;3.80;;;;;;;23.51;54.49;101761.88;5052853;28;20526;-49
2021/06/03 09:39:50;;;;;;;11.15;5.40;;;;;;;23.56;55.68;101758.91;5052335;28;20045;-48
2021/06/03 09:42:21;;;;;;;7.32;3.90;;;;;;;23.54;54.76;101764.00;5052164;28;20037;-49
2021/06/03 09:44:50;;;;;;;9.13;4.03;;;;;;;23.60;55.76;101768.22;5052508;28;20114;-49
2021/06/03 09:47:35;;;;;;;11.13;6.28;;;;;;;23.60;56.54;101768.22;5052341;28;20044;-49
2021/06/03 09:50:06;;;;;;;12.60;5.60;;;;;;;23.61;55.58;101762.31;5052392;28;20395;-50
2021/06/03 09:52:35;;;;;;;11.40;6.10;;;;;;;23.64;56.55;101766.38;5052614;28;20045;-51
2021/06/03 09:55:07;;;;;;;9.20;5.20;;;;;;;23.64;55.81;101771.16;5052471;28;20029;-48
2021/06/03 09:57:40;;;;;;;6.70;3.78;;;;;;;23.65;54.16;101770.81;5051845;28;20522;-50
2021/06/03 10:00:13;;;;;;;9.20;5.32;;;;;;;23.68;56.55;101769.34;5052353;28;20041;-50
2021/06/03 10:02:44;;;;;;;14.25;7.03;;;;;;;23.67;57.28;101774.09;5051983;28;20056;-48
2021/06/03 10:05:19;;;;;;;6.68;4.07;;;;;;;23.66;56.01;101774.41;5052162;28;20052;-52
2021/06/03 10:07:57;;;;;;;9.10;5.60;;;;;;;23.59;56.53;101774.94;5052172;28;20390;-47
2021/06/03 10:10:27;;;;;;;11.38;6.20;;;;;;;23.61;58.29;101775.41;5051591;28;20045;-49
2021/06/03 10:12:55;;;;;;;10.05;5.88;;;;;;;23.64;58.29;101777.53;5052312;28;20099;-51
2021/06/03 10:15:24;;;;;;;12.25;6.05;;;;;;;23.69;57.68;101774.56;5052412;28;20071;-50
2021/06/03 10:17:58;;;;;;;6.70;3.90;;;;;;;23.70;57.31;101776.19;5052057;28;20450;-50
2021/06/03 10:20:45;;;;;;;11.85;5.45;;;;;;;23.75;58.42;101778.81;5052241;28;20045;-52
2021/06/03 10:23:19;;;;;;;9.50;4.88;;;;;;;23.74;58.33;101777.19;5051581;28;20049;-50
2021/06/03 10:25:54;;;;;;;7.63;4.55;;;;;;;23.71;57.82;101775.03;5051227;28;20123;-50
2021/06/03 10:28:24;;;;;;;10.18;5.22;;;;;;;23.72;58.39;101779.47;5051960;28;20045;-48
2021/06/03 10:30:53;;;;;;;8.00;4.57;;;;;;;23.74;57.79;101782.78;5050604;28;20511;-49
2021/06/03 10:33:23;;;;;;;10.18;6.53;;;;;;;23.73;58.15;101780.28;4341275;28;10000734;-50
2021/06/03 10:35:54;;;;;;;12.80;6.70;;;;;;;23.72;58.09;101779.47;5045885;28;20053;-50
2021/06/03 10:38:23;;;;;;;7.78;4.90;;;;;;;23.72;58.39;101776.69;5049804;28;20041;-51
2021/06/03 10:40:54;;;;;;;11.15;7.00;;;;;;;23.70;58.13;101765.06;5048933;28;22155;-51
2021/06/03 10:43:23;;;;;;;10.73;6.70;;;;;;;23.69;58.51;101774.56;5049862;28;20049;-53
2021/06/03 10:45:51;;;;;;;18.30;6.22;;;;;;;23.71;58.85;101777.81;5049223;28;20053;-49
2021/06/03 10:48:18;;;;;;;10.70;7.40;;;;;;;23.67;58.92;101779.66;5051721;28;20045;-50
2021/06/03 10:50:53;;;;;;;10.35;6.40;;;;;;;23.66;58.08;101778.00;5053418;28;20045;-51
2021/06/03 10:53:27;;;;;;;11.85;6.50;;;;;;;23.70;58.34;101780.94;5068632;28;20159;-49
2021/06/03 10:56:09;;;;;;;9.15;5.90;;;;;;;23.72;57.62;101785.03;5067868;28;20047;-52
2021/06/03 10:58:39;;;;;;;10.65;6.80;;;;;;;23.71;58.77;101783.38;5053557;28;20040;-51
2021/06/03 11:01:10;;;;;;;8.43;4.78;;;;;;;23.72;58.50;101789.78;5053720;28;20037;-49
2021/06/03 11:03:56;;;;;;;6.97;4.45;;;;;;;23.75;57.29;101781.59;5053122;28;20508;-50
2021/06/03 11:06:29;;;;;;;11.02;5.80;;;;;;;23.75;58.71;101784.38;5053234;28;20060;-48
2021/06/03 11:09:05;;;;;;;12.98;8.00;;;;;;;23.72;59.04;101773.09;5052456;28;20809;-48
2021/06/03 11:11:46;;;;;;;10.63;7.53;;;;;;;23.72;58.96;101784.22;5053387;28;20044;-53
2021/06/03 11:14:19;;;;;;;14.43;5.45;;;;;;;23.70;57.45;101780.94;5041082;28;20052;-48
2021/06/03 11:16:49;;;;;;;11.50;7.85;;;;;;;23.72;59.15;101779.47;5053073;28;20495;-54
2021/06/03 11:19:25;;;;;;;9.55;5.35;;;;;;;23.75;59.01;101778.81;5052913;28;20045;-52
2021/06/03 11:21:54;;;;;;;14.52;8.73;;;;;;;23.75;62.75;101778.81;5052307;28;20106;-47
2021/06/03 11:24:27;;;;;;;12.52;7.18;;;;;;;23.73;63.25;101781.13;5052171;28;20036;-55
2021/06/03 11:26:59;;;;;;;12.43;7.82;;;;;;;23.70;62.88;101781.75;5052921;28;20095;-49
2021/06/03 11:29:50;;;;;;;10.10;7.75;;;;;;;23.71;65.05;101783.38;5053082;28;20049;-52
2021/06/03 11:32:20;;;;;;;13.32;7.95;;;;;;;23.70;65.63;101775.38;5052043;28;20080;-50
2021/06/03 11:34:51;;;;;;;12.63;8.20;;;;;;;23.72;64.66;101782.25;5068491;28;20060;-50
2021/06/03 11:37:26;;;;;;;14.05;9.45;;;;;;;23.71;65.80;101772.25;5052713;28;20077;-53